LDSPLYTV

Guest
Details From LDSP - SPLIT
To LYTV - Tivat
Flight Number -
Tags generated
Created
Modified
Stats Distance 126 nm / 234 km
Max Altitude 3,000 ft / 914 m
Waypoints 3
Social Downloads 3
Likes 0
Share VATSIM

Download

Looking for another format? Having issues loading an existing format? Contact us
Advertisement - Login to hide

Notes

Basic altitude profile: - Ascent Rate: 2000ft/min - Ascent Speed: 140kts - Cruise Altitude: 3000ft - Cruise Speed: 120kts - Descent Rate: 1000ft/min - Descent Speed: 100kts

Route

LDSP KOPAV LYTV

ID Type Via Altitude Latitude Longitude Leg Dist Tot Dist Heading (true) Name
O LDSP APT - 0 ft / 0 m 43.53903˚ 16.29811˚ - 0 nm - SPLIT
KOPAV FIX - 3,000 ft / 914 m 42.61472˚ 18.30639˚ 104 nm 104 nm 122° / 123° -
O LYTV APT - 0 ft / 0 m 42.40466˚ 18.72329˚ 22 nm 126 nm 124° / 124° Tivat

Altitude Profile

Advertisement - Login to hide

LDSP

Details ICAO LDSP (SPU)
Name SPLIT
Region Croatia
Timezone Europe/Zagreb (UTC+1.0)
Stats Elevation 79 ft / 24 m (AMSL)
Location 43.539026° 16.298112°
Runways 1
Magnetic Variation 3.836° E

METAR

LDSP 120630Z 14008KT 9999 FEW030 SCT060 16/11 Q1013 NOSIG

Decode

TAF

TAF LDSP 120525Z 1206/1306 14015KT 9999 BKN040 TX17/1212Z TN10/1305Z PROB40 TEMPO 1206/1215 14015G25KT TEMPO 1223/1306 RA PROB40 TEMPO 1223/1306 23010KT 4000 SHRA SCT030TCU BKN035

Decode

Departure Runways

ID Width Length Bearing (true) Bearing (mag) Surface Threshold Offset Overrun Length
05 148 ft / 45 m 8,357 ft / 2,547 m 52.48° 48.64° Asphalt 0 ft / 0 m 76 ft / 23 m
23 148 ft / 45 m 8,357 ft / 2,547 m 232.50° 228.66° Asphalt 525 ft / 160 m 820 ft / 250 m

LYTV

Details ICAO LYTV (TIV)
Name Tivat
Region Serbia and Montenegro
Timezone Europe/Podgorica (UTC+1.0)
Stats Elevation 20 ft / 6 m (AMSL)
Location 42.404657° 18.723295°
Runways 1
Magnetic Variation 4.162° E

METAR

LYTV 120630Z 15013KT 110V190 9999 FEW010 SCT023 14/12 Q1019 NOSIG

Decode

TAF

TAF LYTV 120500Z 1206/1306 16009KT 9999 BKN0040 OVC080 TX13/1212Z TN11/1305Z PROB30 TEMPO 1206/1218 16015G30KT TEMPO 1218/1306 5000 RA

Decode

Destination Runways

ID Width Length Bearing (true) Bearing (mag) Surface Threshold Offset Overrun Length
14 148 ft / 45 m 8,206 ft / 2,501 m 139.03° 134.87° Asphalt 300 ft / 91 m 0 ft / 0 m
32 148 ft / 45 m 8,206 ft / 2,501 m 319.04° 314.88° Asphalt 300 ft / 91 m 0 ft / 0 m

Approach Navaids

Runway Type Ident Frequency Range Bearing (true) Bearing (mag) Slope Elevation
32 Localiser TIV 111.30 MHz 50 nm / 93 km 339.00° 334.84° - 56 ft / 17 m (AMSL)
32 DME TIV 111.30 MHz 18 nm / 33 km - - - 49 ft / 15 m (AMSL)

Popular Alternatives